sensor_id;sensor_type;location;lat;lon;timestamp;P1;durP1;ratioP1;P2;durP2;ratioP2
10945;SDS011;5525;42.648;23.368;2022-11-20T00:02:18;9.95;;;7.25;;
10945;SDS011;5525;42.648;23.368;2022-11-20T00:04:45;10.98;;;7.80;;
10945;SDS011;5525;42.648;23.368;2022-11-20T00:07:12;9.80;;;7.50;;
10945;SDS011;5525;42.648;23.368;2022-11-20T00:09:39;10.02;;;8.23;;
10945;SDS011;5525;42.648;23.368;2022-11-20T00:12:06;11.20;;;7.78;;
10945;SDS011;5525;42.648;23.368;2022-11-20T00:14:34;8.57;;;7.13;;
10945;SDS011;5525;42.648;23.368;2022-11-20T00:17:01;9.60;;;6.68;;
10945;SDS011;5525;42.648;23.368;2022-11-20T00:19:28;7.57;;;6.88;;
10945;SDS011;5525;42.648;23.368;2022-11-20T00:21:55;7.38;;;5.38;;
10945;SDS011;5525;42.648;23.368;2022-11-20T00:24:22;7.15;;;5.38;;
10945;SDS011;5525;42.648;23.368;2022-11-20T00:26:49;6.53;;;5.18;;
10945;SDS011;5525;42.648;23.368;2022-11-20T00:29:16;9.20;;;6.00;;
10945;SDS011;5525;42.648;23.368;2022-11-20T00:31:44;6.13;;;5.00;;
10945;SDS011;5525;42.648;23.368;2022-11-20T00:34:10;6.63;;;4.57;;
10945;SDS011;5525;42.648;23.368;2022-11-20T00:36:37;5.60;;;4.22;;
10945;SDS011;5525;42.648;23.368;2022-11-20T00:39:04;6.18;;;4.60;;
10945;SDS011;5525;42.648;23.368;2022-11-20T00:41:31;6.25;;;4.30;;
10945;SDS011;5525;42.648;23.368;2022-11-20T00:43:58;7.80;;;4.40;;
10945;SDS011;5525;42.648;23.368;2022-11-20T00:46:26;6.72;;;4.80;;
10945;SDS011;5525;42.648;23.368;2022-11-20T00:48:55;6.60;;;4.60;;
10945;SDS011;5525;42.648;23.368;2022-11-20T00:51:23;4.43;;;3.30;;
10945;SDS011;5525;42.648;23.368;2022-11-20T00:53:50;4.82;;;3.33;;
10945;SDS011;5525;42.648;23.368;2022-11-20T00:56:18;4.32;;;3.25;;
10945;SDS011;5525;42.648;23.368;2022-11-20T00:58:46;5.15;;;3.47;;
10945;SDS011;5525;42.648;23.368;2022-11-20T01:01:15;4.22;;;2.88;;
10945;SDS011;5525;42.648;23.368;2022-11-20T01:03:44;7.80;;;3.38;;
10945;SDS011;5525;42.648;23.368;2022-11-20T01:06:14;4.10;;;3.10;;
10945;SDS011;5525;42.648;23.368;2022-11-20T01:08:42;5.95;;;2.88;;
10945;SDS011;5525;42.648;23.368;2022-11-20T01:11:10;3.15;;;2.20;;
10945;SDS011;5525;42.648;23.368;2022-11-20T01:13:38;3.42;;;1.83;;
10945;SDS011;5525;42.648;23.368;2022-11-20T01:16:07;3.00;;;1.80;;
10945;SDS011;5525;42.648;23.368;2022-11-20T01:18:35;3.30;;;2.00;;
10945;SDS011;5525;42.648;23.368;2022-11-20T01:21:03;4.38;;;2.60;;
10945;SDS011;5525;42.648;23.368;2022-11-20T01:23:34;4.82;;;2.88;;
10945;SDS011;5525;42.648;23.368;2022-11-20T01:26:03;5.13;;;2.72;;
10945;SDS011;5525;42.648;23.368;2022-11-20T01:28:31;3.53;;;2.58;;
10945;SDS011;5525;42.648;23.368;2022-11-20T01:30:58;4.50;;;3.03;;
10945;SDS011;5525;42.648;23.368;2022-11-20T01:33:25;5.18;;;2.72;;
10945;SDS011;5525;42.648;23.368;2022-11-20T01:35:53;4.75;;;2.80;;
10945;SDS011;5525;42.648;23.368;2022-11-20T01:38:30;4.63;;;2.63;;
10945;SDS011;5525;42.648;23.368;2022-11-20T01:40:58;5.50;;;2.72;;
10945;SDS011;5525;42.648;23.368;2022-11-20T01:43:25;3.85;;;3.00;;
10945;SDS011;5525;42.648;23.368;2022-11-20T01:46:02;4.47;;;2.90;;
10945;SDS011;5525;42.648;23.368;2022-11-20T01:48:33;4.03;;;2.72;;
10945;SDS011;5525;42.648;23.368;2022-11-20T01:51:05;3.25;;;2.92;;
10945;SDS011;5525;42.648;23.368;2022-11-20T01:53:39;4.55;;;2.92;;
10945;SDS011;5525;42.648;23.368;2022-11-20T01:56:08;3.70;;;3.33;;
10945;SDS011;5525;42.648;23.368;2022-11-20T01:58:39;4.05;;;2.60;;
10945;SDS011;5525;42.648;23.368;2022-11-20T02:01:11;4.35;;;2.40;;
10945;SDS011;5525;42.648;23.368;2022-11-20T02:03:39;5.00;;;2.80;;
10945;SDS011;5525;42.648;23.368;2022-11-20T02:06:10;5.90;;;3.20;;
10945;SDS011;5525;42.648;23.368;2022-11-20T02:08:41;5.45;;;3.78;;
10945;SDS011;5525;42.648;23.368;2022-11-20T02:11:09;4.88;;;3.08;;
10945;SDS011;5525;42.648;23.368;2022-11-20T02:13:37;3.78;;;3.00;;
10945;SDS011;5525;42.648;23.368;2022-11-20T02:16:11;4.80;;;3.10;;
10945;SDS011;5525;42.648;23.368;2022-11-20T02:18:40;3.70;;;2.53;;
10945;SDS011;5525;42.648;23.368;2022-11-20T02:21:09;5.10;;;2.75;;
10945;SDS011;5525;42.648;23.368;2022-11-20T02:23:55;3.40;;;2.10;;
10945;SDS011;5525;42.648;23.368;2022-11-20T02:26:34;3.22;;;2.25;;
10945;SDS011;5525;42.648;23.368;2022-11-20T02:29:05;4.65;;;2.40;;
10945;SDS011;5525;42.648;23.368;2022-11-20T02:31:36;3.33;;;2.08;;
10945;SDS011;5525;42.648;23.368;2022-11-20T02:34:04;4.75;;;2.10;;
10945;SDS011;5525;42.648;23.368;2022-11-20T02:36:31;2.95;;;2.15;;
10945;SDS011;5525;42.648;23.368;2022-11-20T02:39:03;4.10;;;2.28;;
10945;SDS011;5525;42.648;23.368;2022-11-20T02:41:31;2.28;;;2.03;;
10945;SDS011;5525;42.648;23.368;2022-11-20T02:43:59;2.80;;;1.80;;
10945;SDS011;5525;42.648;23.368;2022-11-20T02:46:26;2.55;;;1.27;;
10945;SDS011;5525;42.648;23.368;2022-11-20T02:48:53;1.75;;;0.90;;
10945;SDS011;5525;42.648;23.368;2022-11-20T02:51:20;1.10;;;0.90;;
10945;SDS011;5525;42.648;23.368;2022-11-20T02:53:48;1.23;;;1.00;;
10945;SDS011;5525;42.648;23.368;2022-11-20T02:56:16;0.95;;;0.70;;
10945;SDS011;5525;42.648;23.368;2022-11-20T02:58:43;2.88;;;0.75;;
10945;SDS011;5525;42.648;23.368;2022-11-20T03:01:10;3.40;;;0.98;;
10945;SDS011;5525;42.648;23.368;2022-11-20T03:03:36;2.10;;;1.00;;
10945;SDS011;5525;42.648;23.368;2022-11-20T03:06:03;2.55;;;0.90;;
10945;SDS011;5525;42.648;23.368;2022-11-20T03:08:30;1.30;;;0.93;;
10945;SDS011;5525;42.648;23.368;2022-11-20T03:11:01;1.05;;;0.88;;
10945;SDS011;5525;42.648;23.368;2022-11-20T03:13:31;2.42;;;1.10;;
10945;SDS011;5525;42.648;23.368;2022-11-20T03:16:04;2.50;;;0.98;;
10945;SDS011;5525;42.648;23.368;2022-11-20T03:18:32;1.70;;;0.90;;
10945;SDS011;5525;42.648;23.368;2022-11-20T03:20:59;3.03;;;0.90;;
10945;SDS011;5525;42.648;23.368;2022-11-20T03:23:26;1.83;;;0.90;;
10945;SDS011;5525;42.648;23.368;2022-11-20T03:25:55;2.17;;;0.82;;
10945;SDS011;5525;42.648;23.368;2022-11-20T03:28:22;2.28;;;1.10;;
10945;SDS011;5525;42.648;23.368;2022-11-20T03:30:50;0.85;;;0.82;;
10945;SDS011;5525;42.648;23.368;2022-11-20T03:33:17;1.63;;;0.88;;
10945;SDS011;5525;42.648;23.368;2022-11-20T03:35:44;2.45;;;1.00;;
10945;SDS011;5525;42.648;23.368;2022-11-20T03:38:10;1.63;;;0.90;;
10945;SDS011;5525;42.648;23.368;2022-11-20T03:40:37;1.50;;;0.82;;
10945;SDS011;5525;42.648;23.368;2022-11-20T03:43:04;1.90;;;0.90;;
10945;SDS011;5525;42.648;23.368;2022-11-20T03:45:31;1.92;;;1.02;;
10945;SDS011;5525;42.648;23.368;2022-11-20T03:47:59;2.38;;;0.90;;
10945;SDS011;5525;42.648;23.368;2022-11-20T03:50:26;3.85;;;0.88;;
10945;SDS011;5525;42.648;23.368;2022-11-20T03:52:53;2.00;;;0.90;;
10945;SDS011;5525;42.648;23.368;2022-11-20T03:55:19;1.42;;;0.80;;
10945;SDS011;5525;42.648;23.368;2022-11-20T03:57:46;3.08;;;0.95;;
10945;SDS011;5525;42.648;23.368;2022-11-20T04:02:41;2.25;;;0.90;;
10945;SDS011;5525;42.648;23.368;2022-11-20T04:05:09;3.40;;;0.90;;
10945;SDS011;5525;42.648;23.368;2022-11-20T04:07:36;2.65;;;1.00;;
10945;SDS011;5525;42.648;23.368;2022-11-20T04:10:03;1.65;;;0.80;;
10945;SDS011;5525;42.648;23.368;2022-11-20T04:12:31;3.08;;;0.77;;
10945;SDS011;5525;42.648;23.368;2022-11-20T04:14:59;3.63;;;0.90;;
10945;SDS011;5525;42.648;23.368;2022-11-20T04:17:27;3.42;;;0.90;;
10945;SDS011;5525;42.648;23.368;2022-11-20T04:19:54;1.42;;;0.90;;
10945;SDS011;5525;42.648;23.368;2022-11-20T04:22:22;3.38;;;0.90;;
10945;SDS011;5525;42.648;23.368;2022-11-20T04:24:49;1.10;;;0.80;;
10945;SDS011;5525;42.648;23.368;2022-11-20T04:27:15;1.77;;;0.90;;
10945;SDS011;5525;42.648;23.368;2022-11-20T04:29:42;2.03;;;0.70;;
10945;SDS011;5525;42.648;23.368;2022-11-20T04:32:09;1.20;;;0.80;;
10945;SDS011;5525;42.648;23.368;2022-11-20T04:34:36;3.05;;;0.95;;
10945;SDS011;5525;42.648;23.368;2022-11-20T04:37:02;1.75;;;0.80;;
10945;SDS011;5525;42.648;23.368;2022-11-20T04:39:31;1.83;;;0.90;;
10945;SDS011;5525;42.648;23.368;2022-11-20T04:41:58;2.53;;;0.90;;
10945;SDS011;5525;42.648;23.368;2022-11-20T04:44:38;1.02;;;0.70;;
10945;SDS011;5525;42.648;23.368;2022-11-20T04:47:05;2.30;;;0.80;;
10945;SDS011;5525;42.648;23.368;2022-11-20T04:49:32;1.67;;;1.13;;
10945;SDS011;5525;42.648;23.368;2022-11-20T04:52:00;2.60;;;0.98;;
10945;SDS011;5525;42.648;23.368;2022-11-20T04:54:26;3.70;;;0.90;;
10945;SDS011;5525;42.648;23.368;2022-11-20T04:56:54;3.75;;;1.02;;
10945;SDS011;5525;42.648;23.368;2022-11-20T04:59:22;0.98;;;0.73;;
10945;SDS011;5525;42.648;23.368;2022-11-20T05:01:48;1.38;;;0.80;;
10945;SDS011;5525;42.648;23.368;2022-11-20T05:04:17;2.13;;;0.90;;
10945;SDS011;5525;42.648;23.368;2022-11-20T05:06:44;1.15;;;0.85;;
10945;SDS011;5525;42.648;23.368;2022-11-20T05:09:11;2.60;;;0.90;;
10945;SDS011;5525;42.648;23.368;2022-11-20T05:11:38;1.00;;;0.80;;
10945;SDS011;5525;42.648;23.368;2022-11-20T05:14:06;2.72;;;0.88;;
10945;SDS011;5525;42.648;23.368;2022-11-20T05:16:33;1.17;;;0.80;;
10945;SDS011;5525;42.648;23.368;2022-11-20T05:19:01;1.67;;;0.80;;
10945;SDS011;5525;42.648;23.368;2022-11-20T05:21:30;1.65;;;0.90;;
10945;SDS011;5525;42.648;23.368;2022-11-20T05:23:57;2.00;;;0.80;;
10945;SDS011;5525;42.648;23.368;2022-11-20T05:26:24;1.67;;;0.80;;
10945;SDS011;5525;42.648;23.368;2022-11-20T05:28:51;3.13;;;1.17;;
10945;SDS011;5525;42.648;23.368;2022-11-20T05:31:20;1.48;;;1.00;;
10945;SDS011;5525;42.648;23.368;2022-11-20T05:33:48;2.72;;;1.00;;
10945;SDS011;5525;42.648;23.368;2022-11-20T05:36:15;1.50;;;1.00;;
10945;SDS011;5525;42.648;23.368;2022-11-20T05:38:42;3.03;;;1.00;;
10945;SDS011;5525;42.648;23.368;2022-11-20T05:41:11;2.47;;;1.20;;
10945;SDS011;5525;42.648;23.368;2022-11-20T05:43:39;5.03;;;1.83;;
10945;SDS011;5525;42.648;23.368;2022-11-20T05:46:07;4.65;;;1.65;;
10945;SDS011;5525;42.648;23.368;2022-11-20T05:48:37;2.08;;;1.20;;
10945;SDS011;5525;42.648;23.368;2022-11-20T05:51:05;2.97;;;1.20;;
10945;SDS011;5525;42.648;23.368;2022-11-20T05:53:34;4.38;;;1.20;;
10945;SDS011;5525;42.648;23.368;2022-11-20T05:56:02;2.55;;;1.23;;
10945;SDS011;5525;42.648;23.368;2022-11-20T05:58:31;3.13;;;1.10;;
10945;SDS011;5525;42.648;23.368;2022-11-20T06:01:02;4.80;;;1.60;;
10945;SDS011;5525;42.648;23.368;2022-11-20T06:03:30;2.13;;;1.40;;
10945;SDS011;5525;42.648;23.368;2022-11-20T06:05:59;2.35;;;1.17;;
10945;SDS011;5525;42.648;23.368;2022-11-20T06:08:26;2.08;;;1.17;;
10945;SDS011;5525;42.648;23.368;2022-11-20T06:10:53;3.35;;;1.17;;
10945;SDS011;5525;42.648;23.368;2022-11-20T06:13:20;1.83;;;1.10;;
10945;SDS011;5525;42.648;23.368;2022-11-20T06:15:48;2.95;;;1.20;;
10945;SDS011;5525;42.648;23.368;2022-11-20T06:18:15;1.88;;;1.35;;
10945;SDS011;5525;42.648;23.368;2022-11-20T06:20:42;2.10;;;1.30;;
10945;SDS011;5525;42.648;23.368;2022-11-20T06:23:10;3.35;;;1.25;;
10945;SDS011;5525;42.648;23.368;2022-11-20T06:25:37;3.28;;;1.40;;
10945;SDS011;5525;42.648;23.368;2022-11-20T06:28:04;2.88;;;1.42;;
10945;SDS011;5525;42.648;23.368;2022-11-20T06:30:31;2.08;;;1.35;;
10945;SDS011;5525;42.648;23.368;2022-11-20T06:32:58;2.80;;;1.20;;
10945;SDS011;5525;42.648;23.368;2022-11-20T06:35:26;3.92;;;1.65;;
10945;SDS011;5525;42.648;23.368;2022-11-20T06:37:53;3.30;;;1.10;;
10945;SDS011;5525;42.648;23.368;2022-11-20T06:40:23;4.43;;;1.35;;
10945;SDS011;5525;42.648;23.368;2022-11-20T06:42:50;4.07;;;1.40;;
10945;SDS011;5525;42.648;23.368;2022-11-20T06:45:17;4.78;;;1.50;;
10945;SDS011;5525;42.648;23.368;2022-11-20T06:47:43;4.43;;;1.50;;
10945;SDS011;5525;42.648;23.368;2022-11-20T06:50:10;3.83;;;1.35;;
10945;SDS011;5525;42.648;23.368;2022-11-20T06:52:37;6.47;;;2.05;;
10945;SDS011;5525;42.648;23.368;2022-11-20T06:55:04;6.22;;;1.85;;
10945;SDS011;5525;42.648;23.368;2022-11-20T06:57:34;4.72;;;1.70;;
10945;SDS011;5525;42.648;23.368;2022-11-20T07:00:01;6.18;;;1.42;;
10945;SDS011;5525;42.648;23.368;2022-11-20T07:02:28;8.25;;;2.30;;
10945;SDS011;5525;42.648;23.368;2022-11-20T07:04:54;4.05;;;1.73;;
10945;SDS011;5525;42.648;23.368;2022-11-20T07:07:21;5.13;;;2.30;;
10945;SDS011;5525;42.648;23.368;2022-11-20T07:09:48;4.00;;;1.20;;
10945;SDS011;5525;42.648;23.368;2022-11-20T07:12:15;3.78;;;2.15;;
10945;SDS011;5525;42.648;23.368;2022-11-20T07:14:43;3.42;;;1.50;;
10945;SDS011;5525;42.648;23.368;2022-11-20T07:17:09;3.35;;;1.40;;
10945;SDS011;5525;42.648;23.368;2022-11-20T07:19:37;3.95;;;2.08;;
10945;SDS011;5525;42.648;23.368;2022-11-20T07:22:04;4.43;;;1.80;;
10945;SDS011;5525;42.648;23.368;2022-11-20T07:24:31;5.07;;;1.30;;
10945;SDS011;5525;42.648;23.368;2022-11-20T07:26:58;2.53;;;1.27;;
10945;SDS011;5525;42.648;23.368;2022-11-20T07:29:24;5.82;;;1.50;;
10945;SDS011;5525;42.648;23.368;2022-11-20T07:31:53;5.40;;;1.70;;
10945;SDS011;5525;42.648;23.368;2022-11-20T07:34:22;1.70;;;1.45;;
10945;SDS011;5525;42.648;23.368;2022-11-20T07:36:49;3.60;;;1.67;;
10945;SDS011;5525;42.648;23.368;2022-11-20T07:39:16;4.90;;;1.40;;
10945;SDS011;5525;42.648;23.368;2022-11-20T07:41:43;4.50;;;2.72;;
10945;SDS011;5525;42.648;23.368;2022-11-20T07:44:10;1.60;;;1.20;;
10945;SDS011;5525;42.648;23.368;2022-11-20T07:46:37;5.40;;;1.70;;
10945;SDS011;5525;42.648;23.368;2022-11-20T07:49:05;4.30;;;1.67;;
10945;SDS011;5525;42.648;23.368;2022-11-20T07:51:32;3.28;;;1.58;;
10945;SDS011;5525;42.648;23.368;2022-11-20T07:53:58;4.13;;;1.30;;
10945;SDS011;5525;42.648;23.368;2022-11-20T07:56:25;5.82;;;2.25;;
10945;SDS011;5525;42.648;23.368;2022-11-20T07:58:52;3.65;;;1.80;;
10945;SDS011;5525;42.648;23.368;2022-11-20T08:01:19;4.22;;;2.40;;
10945;SDS011;5525;42.648;23.368;2022-11-20T08:03:46;4.30;;;1.40;;
10945;SDS011;5525;42.648;23.368;2022-11-20T08:06:14;4.50;;;1.50;;
10945;SDS011;5525;42.648;23.368;2022-11-20T08:08:42;4.18;;;1.42;;
10945;SDS011;5525;42.648;23.368;2022-11-20T08:11:09;2.47;;;1.45;;
10945;SDS011;5525;42.648;23.368;2022-11-20T08:13:54;3.63;;;1.70;;
10945;SDS011;5525;42.648;23.368;2022-11-20T08:16:39;3.88;;;2.10;;
10945;SDS011;5525;42.648;23.368;2022-11-20T08:19:06;3.42;;;1.40;;
10945;SDS011;5525;42.648;23.368;2022-11-20T08:21:35;2.42;;;1.45;;
10945;SDS011;5525;42.648;23.368;2022-11-20T08:24:02;3.72;;;1.50;;
10945;SDS011;5525;42.648;23.368;2022-11-20T08:26:30;4.97;;;1.63;;
10945;SDS011;5525;42.648;23.368;2022-11-20T08:28:57;3.70;;;1.50;;
10945;SDS011;5525;42.648;23.368;2022-11-20T08:31:25;5.78;;;1.88;;
10945;SDS011;5525;42.648;23.368;2022-11-20T08:33:53;4.55;;;1.60;;
10945;SDS011;5525;42.648;23.368;2022-11-20T08:36:20;6.03;;;1.73;;
10945;SDS011;5525;42.648;23.368;2022-11-20T08:38:49;4.63;;;1.35;;
10945;SDS011;5525;42.648;23.368;2022-11-20T08:41:17;3.10;;;1.65;;
10945;SDS011;5525;42.648;23.368;2022-11-20T08:43:52;6.50;;;1.60;;
10945;SDS011;5525;42.648;23.368;2022-11-20T08:46:22;6.65;;;2.30;;
10945;SDS011;5525;42.648;23.368;2022-11-20T08:48:49;7.70;;;1.80;;
10945;SDS011;5525;42.648;23.368;2022-11-20T08:51:16;7.10;;;2.78;;
10945;SDS011;5525;42.648;23.368;2022-11-20T08:53:43;5.93;;;1.80;;
10945;SDS011;5525;42.648;23.368;2022-11-20T08:56:12;6.45;;;2.50;;
10945;SDS011;5525;42.648;23.368;2022-11-20T08:58:39;4.15;;;1.60;;
10945;SDS011;5525;42.648;23.368;2022-11-20T09:01:06;6.97;;;1.60;;
10945;SDS011;5525;42.648;23.368;2022-11-20T09:03:33;4.82;;;1.83;;
10945;SDS011;5525;42.648;23.368;2022-11-20T09:06:00;3.08;;;1.70;;
10945;SDS011;5525;42.648;23.368;2022-11-20T09:08:28;6.20;;;1.98;;
10945;SDS011;5525;42.648;23.368;2022-11-20T09:10:56;4.20;;;2.03;;
10945;SDS011;5525;42.648;23.368;2022-11-20T09:13:27;5.07;;;2.00;;
10945;SDS011;5525;42.648;23.368;2022-11-20T09:15:55;4.97;;;2.15;;
10945;SDS011;5525;42.648;23.368;2022-11-20T09:18:23;5.68;;;2.60;;
10945;SDS011;5525;42.648;23.368;2022-11-20T09:20:50;5.68;;;2.90;;
10945;SDS011;5525;42.648;23.368;2022-11-20T09:23:17;8.88;;;4.50;;
10945;SDS011;5525;42.648;23.368;2022-11-20T09:25:44;8.23;;;3.67;;
10945;SDS011;5525;42.648;23.368;2022-11-20T09:28:11;5.47;;;3.22;;
10945;SDS011;5525;42.648;23.368;2022-11-20T09:30:39;4.57;;;3.25;;
10945;SDS011;5525;42.648;23.368;2022-11-20T09:33:06;3.20;;;2.17;;
10945;SDS011;5525;42.648;23.368;2022-11-20T09:35:33;3.53;;;2.10;;
10945;SDS011;5525;42.648;23.368;2022-11-20T09:38:04;4.28;;;2.22;;
10945;SDS011;5525;42.648;23.368;2022-11-20T09:40:34;3.58;;;2.42;;
10945;SDS011;5525;42.648;23.368;2022-11-20T09:43:10;4.18;;;2.42;;
10945;SDS011;5525;42.648;23.368;2022-11-20T09:45:53;3.25;;;1.90;;
10945;SDS011;5525;42.648;23.368;2022-11-20T09:48:50;5.28;;;4.45;;
10945;SDS011;5525;42.648;23.368;2022-11-20T09:51:41;3.15;;;1.20;;
10945;SDS011;5525;42.648;23.368;2022-11-20T09:54:16;1.77;;;1.45;;
10945;SDS011;5525;42.648;23.368;2022-11-20T09:56:49;2.63;;;1.40;;
10945;SDS011;5525;42.648;23.368;2022-11-20T09:59:29;2.05;;;1.60;;
10945;SDS011;5525;42.648;23.368;2022-11-20T10:02:15;5.20;;;2.28;;
10945;SDS011;5525;42.648;23.368;2022-11-20T10:04:51;3.22;;;2.05;;
10945;SDS011;5525;42.648;23.368;2022-11-20T10:10:21;2.67;;;1.40;;
10945;SDS011;5525;42.648;23.368;2022-11-20T10:13:17;2.58;;;1.58;;
10945;SDS011;5525;42.648;23.368;2022-11-20T10:16:07;4.20;;;1.80;;
10945;SDS011;5525;42.648;23.368;2022-11-20T10:18:51;2.33;;;1.45;;
10945;SDS011;5525;42.648;23.368;2022-11-20T10:21:30;4.40;;;1.60;;
10945;SDS011;5525;42.648;23.368;2022-11-20T10:24:16;3.42;;;1.80;;
10945;SDS011;5525;42.648;23.368;2022-11-20T10:27:09;3.80;;;1.95;;
10945;SDS011;5525;42.648;23.368;2022-11-20T10:29:57;3.22;;;1.67;;
10945;SDS011;5525;42.648;23.368;2022-11-20T10:32:30;2.00;;;1.77;;
10945;SDS011;5525;42.648;23.368;2022-11-20T10:35:06;4.68;;;2.28;;
10945;SDS011;5525;42.648;23.368;2022-11-20T10:37:44;6.50;;;2.83;;
10945;SDS011;5525;42.648;23.368;2022-11-20T10:40:22;5.88;;;2.92;;
10945;SDS011;5525;42.648;23.368;2022-11-20T10:42:55;5.30;;;3.10;;
10945;SDS011;5525;42.648;23.368;2022-11-20T10:45:32;6.00;;;2.72;;
10945;SDS011;5525;42.648;23.368;2022-11-20T10:48:15;3.88;;;2.65;;
10945;SDS011;5525;42.648;23.368;2022-11-20T10:53:54;7.35;;;3.35;;
10945;SDS011;5525;42.648;23.368;2022-11-20T10:56:31;7.60;;;3.50;;
10945;SDS011;5525;42.648;23.368;2022-11-20T11:01:56;5.95;;;3.20;;
10945;SDS011;5525;42.648;23.368;2022-11-20T11:04:33;5.82;;;3.20;;
10945;SDS011;5525;42.648;23.368;2022-11-20T11:07:06;6.32;;;3.67;;
10945;SDS011;5525;42.648;23.368;2022-11-20T11:09:38;9.20;;;3.97;;
10945;SDS011;5525;42.648;23.368;2022-11-20T11:12:09;7.28;;;3.85;;
10945;SDS011;5525;42.648;23.368;2022-11-20T11:14:43;7.30;;;3.72;;
10945;SDS011;5525;42.648;23.368;2022-11-20T11:17:22;7.68;;;3.78;;
10945;SDS011;5525;42.648;23.368;2022-11-20T11:19:59;8.82;;;4.10;;
10945;SDS011;5525;42.648;23.368;2022-11-20T11:22:27;9.38;;;4.15;;
10945;SDS011;5525;42.648;23.368;2022-11-20T11:25:00;8.20;;;3.70;;
10945;SDS011;5525;42.648;23.368;2022-11-20T11:27:27;4.72;;;2.78;;
10945;SDS011;5525;42.648;23.368;2022-11-20T11:30:11;3.45;;;1.80;;
10945;SDS011;5525;42.648;23.368;2022-11-20T11:32:40;2.72;;;1.67;;
10945;SDS011;5525;42.648;23.368;2022-11-20T11:35:18;2.72;;;1.23;;
10945;SDS011;5525;42.648;23.368;2022-11-20T11:37:50;1.77;;;0.90;;
10945;SDS011;5525;42.648;23.368;2022-11-20T11:40:22;1.52;;;1.00;;
10945;SDS011;5525;42.648;23.368;2022-11-20T11:42:56;1.80;;;1.30;;
10945;SDS011;5525;42.648;23.368;2022-11-20T11:45:25;1.70;;;1.10;;
10945;SDS011;5525;42.648;23.368;2022-11-20T11:47:51;1.48;;;1.02;;
10945;SDS011;5525;42.648;23.368;2022-11-20T11:50:21;1.08;;;0.77;;
10945;SDS011;5525;42.648;23.368;2022-11-20T11:53:02;1.17;;;0.70;;
10945;SDS011;5525;42.648;23.368;2022-11-20T11:55:38;5.72;;;0.93;;
10945;SDS011;5525;42.648;23.368;2022-11-20T11:58:17;2.20;;;0.80;;
10945;SDS011;5525;42.648;23.368;2022-11-20T12:00:56;2.13;;;0.90;;
10945;SDS011;5525;42.648;23.368;2022-11-20T12:03:29;4.35;;;1.00;;
10945;SDS011;5525;42.648;23.368;2022-11-20T12:06:03;2.30;;;0.90;;
10945;SDS011;5525;42.648;23.368;2022-11-20T12:08:39;3.00;;;0.90;;
10945;SDS011;5525;42.648;23.368;2022-11-20T12:11:13;1.67;;;1.00;;
10945;SDS011;5525;42.648;23.368;2022-11-20T12:13:46;1.73;;;0.70;;
10945;SDS011;5525;42.648;23.368;2022-11-20T12:16:19;4.38;;;0.70;;
10945;SDS011;5525;42.648;23.368;2022-11-20T12:18:47;1.17;;;0.60;;
10945;SDS011;5525;42.648;23.368;2022-11-20T12:21:19;1.17;;;0.52;;
10945;SDS011;5525;42.648;23.368;2022-11-20T12:24:02;0.95;;;0.60;;
10945;SDS011;5525;42.648;23.368;2022-11-20T12:26:48;2.05;;;0.80;;
10945;SDS011;5525;42.648;23.368;2022-11-20T12:29:30;1.02;;;0.75;;
10945;SDS011;5525;42.648;23.368;2022-11-20T12:32:15;2.22;;;0.60;;
10945;SDS011;5525;42.648;23.368;2022-11-20T12:35:14;0.95;;;0.65;;
10945;SDS011;5525;42.648;23.368;2022-11-20T12:37:59;1.38;;;0.52;;
10945;SDS011;5525;42.648;23.368;2022-11-20T12:40:44;0.82;;;0.55;;
10945;SDS011;5525;42.648;23.368;2022-11-20T12:43:20;3.08;;;1.08;;
10945;SDS011;5525;42.648;23.368;2022-11-20T12:46:13;2.10;;;1.17;;
10945;SDS011;5525;42.648;23.368;2022-11-20T12:49:02;1.80;;;1.02;;
10945;SDS011;5525;42.648;23.368;2022-11-20T12:52:00;2.60;;;1.00;;
10945;SDS011;5525;42.648;23.368;2022-11-20T12:54:48;2.40;;;1.13;;
10945;SDS011;5525;42.648;23.368;2022-11-20T12:57:35;3.78;;;1.20;;
10945;SDS011;5525;42.648;23.368;2022-11-20T13:00:12;4.63;;;1.55;;
10945;SDS011;5525;42.648;23.368;2022-11-20T13:02:51;3.20;;;1.80;;
10945;SDS011;5525;42.648;23.368;2022-11-20T13:05:35;2.22;;;1.20;;
10945;SDS011;5525;42.648;23.368;2022-11-20T13:08:08;3.10;;;1.00;;
10945;SDS011;5525;42.648;23.368;2022-11-20T13:10:43;3.22;;;1.20;;
10945;SDS011;5525;42.648;23.368;2022-11-20T13:13:18;2.38;;;1.80;;
10945;SDS011;5525;42.648;23.368;2022-11-20T13:15:55;18.48;;;12.27;;
10945;SDS011;5525;42.648;23.368;2022-11-20T13:18:26;4.60;;;2.65;;
10945;SDS011;5525;42.648;23.368;2022-11-20T13:21:00;5.45;;;2.78;;
10945;SDS011;5525;42.648;23.368;2022-11-20T13:23:27;5.40;;;2.65;;
10945;SDS011;5525;42.648;23.368;2022-11-20T13:26:05;2.40;;;1.60;;
10945;SDS011;5525;42.648;23.368;2022-11-20T13:28:40;2.75;;;1.90;;
10945;SDS011;5525;42.648;23.368;2022-11-20T13:31:12;3.22;;;2.08;;
10945;SDS011;5525;42.648;23.368;2022-11-20T13:33:56;5.20;;;2.65;;
10945;SDS011;5525;42.648;23.368;2022-11-20T13:36:26;5.32;;;1.65;;
10945;SDS011;5525;42.648;23.368;2022-11-20T13:38:55;2.50;;;1.70;;
10945;SDS011;5525;42.648;23.368;2022-11-20T13:41:23;4.05;;;1.50;;
10945;SDS011;5525;42.648;23.368;2022-11-20T13:44:04;4.15;;;1.70;;
10945;SDS011;5525;42.648;23.368;2022-11-20T13:46:39;6.63;;;2.35;;
10945;SDS011;5525;42.648;23.368;2022-11-20T13:49:09;4.82;;;2.20;;
10945;SDS011;5525;42.648;23.368;2022-11-20T13:51:42;7.50;;;2.17;;
10945;SDS011;5525;42.648;23.368;2022-11-20T13:54:16;3.25;;;2.20;;
10945;SDS011;5525;42.648;23.368;2022-11-20T13:56:56;5.13;;;2.15;;
10945;SDS011;5525;42.648;23.368;2022-11-20T13:59:36;4.30;;;2.20;;
10945;SDS011;5525;42.648;23.368;2022-11-20T14:02:12;5.53;;;2.22;;
10945;SDS011;5525;42.648;23.368;2022-11-20T14:04:42;4.07;;;2.05;;
10945;SDS011;5525;42.648;23.368;2022-11-20T14:07:11;4.63;;;2.58;;
10945;SDS011;5525;42.648;23.368;2022-11-20T14:09:38;3.92;;;2.70;;
10945;SDS011;5525;42.648;23.368;2022-11-20T14:12:15;4.75;;;2.70;;
10945;SDS011;5525;42.648;23.368;2022-11-20T14:14:47;3.78;;;2.50;;
10945;SDS011;5525;42.648;23.368;2022-11-20T14:17:19;4.80;;;2.60;;
10945;SDS011;5525;42.648;23.368;2022-11-20T14:19:48;4.00;;;3.25;;
10945;SDS011;5525;42.648;23.368;2022-11-20T14:22:18;4.03;;;2.30;;
10945;SDS011;5525;42.648;23.368;2022-11-20T14:25:00;5.38;;;3.05;;
10945;SDS011;5525;42.648;23.368;2022-11-20T14:27:32;5.28;;;3.28;;
10945;SDS011;5525;42.648;23.368;2022-11-20T14:30:00;6.00;;;2.50;;
10945;SDS011;5525;42.648;23.368;2022-11-20T14:32:30;6.47;;;2.60;;
10945;SDS011;5525;42.648;23.368;2022-11-20T14:34:59;6.45;;;3.10;;
10945;SDS011;5525;42.648;23.368;2022-11-20T14:37:35;5.22;;;3.00;;
10945;SDS011;5525;42.648;23.368;2022-11-20T14:40:20;5.63;;;3.28;;
10945;SDS011;5525;42.648;23.368;2022-11-20T14:42:50;6.65;;;3.65;;
10945;SDS011;5525;42.648;23.368;2022-11-20T14:45:17;5.78;;;4.20;;
10945;SDS011;5525;42.648;23.368;2022-11-20T14:47:47;7.97;;;3.92;;
10945;SDS011;5525;42.648;23.368;2022-11-20T14:50:17;7.40;;;4.55;;
10945;SDS011;5525;42.648;23.368;2022-11-20T14:52:50;8.00;;;4.43;;
10945;SDS011;5525;42.648;23.368;2022-11-20T14:55:27;7.47;;;4.30;;
10945;SDS011;5525;42.648;23.368;2022-11-20T14:57:56;7.38;;;4.05;;
10945;SDS011;5525;42.648;23.368;2022-11-20T15:00:24;5.47;;;3.13;;
10945;SDS011;5525;42.648;23.368;2022-11-20T15:02:53;7.85;;;4.38;;
10945;SDS011;5525;42.648;23.368;2022-11-20T15:05:21;6.25;;;3.58;;
10945;SDS011;5525;42.648;23.368;2022-11-20T15:07:50;7.65;;;3.90;;
10945;SDS011;5525;42.648;23.368;2022-11-20T15:10:30;8.27;;;4.38;;
10945;SDS011;5525;42.648;23.368;2022-11-20T15:12:59;8.45;;;4.32;;
10945;SDS011;5525;42.648;23.368;2022-11-20T15:15:29;5.85;;;3.78;;
10945;SDS011;5525;42.648;23.368;2022-11-20T15:18:00;5.97;;;3.22;;
10945;SDS011;5525;42.648;23.368;2022-11-20T15:20:28;4.18;;;2.72;;
10945;SDS011;5525;42.648;23.368;2022-11-20T15:22:57;4.72;;;2.50;;